createdAt,value
2022-08-25T00:00:22.800Z,2.35
2022-08-25T00:02:55.699Z,1.90
2022-08-25T00:05:29.225Z,2.38
2022-08-25T00:07:59.078Z,1.90
2022-08-25T00:10:30.044Z,2.33
2022-08-25T00:12:57.339Z,2.47
2022-08-25T00:15:24.674Z,2.30
2022-08-25T00:17:55.539Z,2.22
2022-08-25T00:20:22.658Z,2.17
2022-08-25T00:22:49.896Z,2.20
2022-08-25T00:25:18.127Z,2.83
2022-08-25T00:27:50.054Z,2.33
2022-08-25T00:30:18.916Z,2.70
2022-08-25T00:32:55.108Z,2.05
2022-08-25T00:35:31.420Z,2.50
2022-08-25T00:38:02.157Z,2.50
2022-08-25T00:40:30.252Z,2.50
2022-08-25T00:43:01.758Z,1.88
2022-08-25T00:48:04.019Z,2.38
2022-08-25T00:50:35.520Z,2.10
2022-08-25T00:53:08.299Z,2.60
2022-08-25T00:55:45.945Z,2.42
2022-08-25T00:58:20.361Z,2.50
2022-08-25T01:00:50.793Z,2.53
2022-08-25T01:03:19.488Z,2.80
2022-08-25T01:05:47.960Z,2.45
2022-08-25T01:08:16.908Z,2.38
2022-08-25T01:10:48.912Z,2.35
2022-08-25T01:13:19.591Z,2.00
2022-08-25T01:15:49.353Z,2.25
2022-08-25T01:18:16.676Z,2.17
2022-08-25T01:20:44.269Z,2.60
2022-08-25T01:23:15.556Z,2.13
2022-08-25T01:26:00.335Z,2.42
2022-08-25T01:28:28.076Z,2.30
2022-08-25T01:30:59.211Z,2.90
2022-08-25T01:33:26.771Z,2.58
2022-08-25T01:35:54.827Z,2.33
2022-08-25T01:38:23.068Z,2.67
2022-08-25T01:40:54.463Z,2.47
2022-08-25T01:43:37.804Z,2.42
2022-08-25T01:46:10.193Z,2.40
2022-08-25T01:48:41.083Z,2.42
2022-08-25T01:51:12.054Z,2.47
2022-08-25T01:53:44.408Z,2.40
2022-08-25T01:56:14.743Z,2.30
2022-08-25T01:58:49.025Z,2.70
2022-08-25T02:01:20.442Z,2.20
2022-08-25T02:03:50.484Z,1.95
2022-08-25T02:06:28.750Z,2.17
2022-08-25T02:09:01.278Z,2.40
2022-08-25T02:11:29.466Z,2.22
2022-08-25T02:13:57.182Z,2.22
2022-08-25T02:16:28.603Z,2.25
2022-08-25T02:21:23.272Z,2.10
2022-08-25T02:23:50.812Z,2.05
2022-08-25T02:26:19.360Z,1.77
2022-08-25T02:28:48.399Z,1.73
2022-08-25T02:31:16.951Z,2.20
2022-08-25T02:33:44.350Z,2.13
2022-08-25T02:36:11.674Z,2.00
2022-08-25T02:38:39.905Z,2.45
2022-08-25T02:41:13.668Z,2.40
2022-08-25T02:43:42.928Z,1.85
2022-08-25T02:46:12.019Z,2.20
2022-08-25T02:48:40.354Z,1.88
2022-08-25T02:51:09.112Z,2.17
2022-08-25T02:53:39.805Z,1.80
2022-08-25T02:56:11.054Z,2.20
2022-08-25T02:58:39.257Z,2.30
2022-08-25T03:01:17.119Z,2.10
2022-08-25T03:03:46.153Z,2.10
2022-08-25T03:06:16.195Z,2.03
2022-08-25T03:08:44.271Z,1.98
2022-08-25T03:11:11.811Z,2.30
2022-08-25T03:13:40.371Z,2.03
2022-08-25T03:16:11.096Z,1.95
2022-08-25T03:18:41.120Z,2.13
2022-08-25T03:21:10.570Z,1.70
2022-08-25T03:23:42.133Z,1.88
2022-08-25T03:28:57.995Z,2.08
2022-08-25T03:31:29.095Z,1.73
2022-08-25T03:33:56.756Z,1.88
2022-08-25T03:36:24.875Z,1.90
2022-08-25T03:38:53.246Z,2.13
2022-08-25T03:41:29.266Z,2.15
2022-08-25T03:43:58.485Z,2.15
2022-08-25T03:46:40.704Z,1.90
2022-08-25T03:49:13.194Z,2.15
2022-08-25T03:51:48.012Z,2.15
2022-08-25T03:54:19.015Z,2.10
2022-08-25T03:56:46.724Z,2.30
2022-08-25T03:59:15.047Z,1.80
2022-08-25T04:01:48.417Z,2.20
2022-08-25T04:04:22.256Z,2.30
2022-08-25T04:06:53.572Z,2.30
2022-08-25T04:09:21.310Z,1.92
2022-08-25T04:11:52.900Z,2.50
2022-08-25T04:14:21.835Z,2.15
2022-08-25T04:16:49.597Z,2.35
2022-08-25T04:19:21.081Z,1.98
2022-08-25T04:21:48.505Z,1.98
2022-08-25T04:24:15.968Z,2.83
2022-08-25T04:26:48.789Z,2.22
2022-08-25T04:29:19.252Z,2.40
2022-08-25T04:31:51.247Z,2.35
2022-08-25T04:34:29.518Z,2.33
2022-08-25T04:36:57.602Z,2.70
2022-08-25T04:39:24.821Z,2.20
2022-08-25T04:41:52.384Z,2.00
2022-08-25T04:44:19.516Z,2.50
2022-08-25T04:46:46.775Z,2.13
2022-08-25T04:49:13.887Z,2.08
2022-08-25T04:51:41.913Z,2.38
2022-08-25T04:54:13.054Z,2.28
2022-08-25T04:56:41.447Z,1.80
2022-08-25T04:59:13.014Z,2.20
2022-08-25T05:04:14.638Z,2.33
2022-08-25T05:06:55.131Z,2.08
2022-08-25T05:09:22.238Z,1.98
2022-08-25T05:11:49.464Z,1.90
2022-08-25T05:14:21.796Z,2.03
2022-08-25T05:16:53.470Z,2.40
2022-08-25T05:19:20.584Z,2.47
2022-08-25T05:21:48.120Z,2.42
2022-08-25T05:24:15.197Z,2.15
2022-08-25T05:26:43.972Z,2.30
2022-08-25T05:29:11.941Z,2.28
2022-08-25T05:31:43.147Z,2.03
2022-08-25T05:34:12.487Z,2.38
2022-08-25T05:36:43.583Z,2.60
2022-08-25T05:39:11.561Z,2.28
2022-08-25T05:41:39.119Z,2.10
2022-08-25T05:44:06.604Z,2.20
2022-08-25T05:46:33.899Z,2.20
2022-08-25T05:49:01.357Z,2.20
2022-08-25T05:51:28.554Z,2.35
2022-08-25T05:53:55.793Z,2.10
2022-08-25T05:56:23.135Z,2.65
2022-08-25T05:58:50.494Z,2.10
2022-08-25T06:01:43.301Z,2.17
2022-08-25T06:04:12.854Z,2.35
2022-08-25T06:06:42.023Z,2.60
2022-08-25T06:09:10.409Z,2.50
2022-08-25T06:11:40.219Z,2.15
2022-08-25T06:14:09.018Z,2.38
2022-08-25T06:16:36.661Z,2.20
2022-08-25T06:19:04.043Z,2.20
2022-08-25T06:21:31.395Z,2.05
2022-08-25T06:23:58.706Z,2.60
2022-08-25T06:26:26.405Z,2.53
2022-08-25T06:28:54.105Z,2.47
2022-08-25T06:31:22.718Z,2.20
2022-08-25T06:33:50.086Z,2.30
2022-08-25T06:36:17.287Z,2.38
2022-08-25T06:38:44.485Z,2.50
2022-08-25T06:41:12.748Z,2.30
2022-08-25T06:43:47.313Z,2.38
2022-08-25T06:46:20.319Z,2.50
2022-08-25T06:48:48.187Z,2.63
2022-08-25T06:51:18.361Z,2.45
2022-08-25T06:53:48.056Z,2.05
2022-08-25T06:56:16.339Z,2.10
2022-08-25T06:58:43.425Z,2.38
2022-08-25T07:01:19.583Z,2.78
2022-08-25T07:03:48.020Z,1.98
2022-08-25T07:06:18.275Z,2.42
2022-08-25T07:08:46.776Z,2.40
2022-08-25T07:11:16.380Z,2.00
2022-08-25T07:13:45.929Z,1.83
2022-08-25T07:16:17.684Z,2.10
2022-08-25T07:18:45.984Z,2.00
2022-08-25T07:21:13.873Z,2.00
2022-08-25T07:23:43.875Z,2.15
2022-08-25T07:26:36.641Z,2.15
2022-08-25T07:29:02.524Z,1.98
2022-08-25T07:31:30.479Z,1.63
2022-08-25T07:34:36.860Z,1.90
2022-08-25T07:37:06.253Z,1.98
2022-08-25T07:39:34.062Z,1.85
2022-08-25T07:42:01.163Z,1.88
2022-08-25T07:44:29.161Z,2.10
2022-08-25T07:46:56.995Z,2.20
2022-08-25T07:49:25.956Z,1.85
2022-08-25T07:52:03.583Z,1.90
2022-08-25T07:54:34.927Z,2.00
2022-08-25T07:57:08.644Z,1.75
2022-08-25T07:59:40.361Z,1.80
2022-08-25T08:02:18.983Z,1.80
2022-08-25T08:04:49.836Z,1.70
2022-08-25T08:07:23.037Z,1.83
2022-08-25T08:10:05.357Z,1.60
2022-08-25T08:12:38.796Z,1.67
2022-08-25T08:15:10.393Z,1.50
2022-08-25T08:17:39.730Z,2.40
2022-08-25T08:20:09.234Z,1.83
2022-08-25T08:22:41.931Z,1.75
2022-08-25T08:25:11.490Z,2.17
2022-08-25T08:27:46.457Z,1.98
2022-08-25T08:30:14.319Z,1.80
2022-08-25T08:33:08.118Z,1.92
2022-08-25T08:35:28.862Z,2.40
2022-08-25T08:37:55.937Z,2.15
2022-08-25T08:40:23.187Z,1.92
2022-08-25T08:43:07.444Z,2.20
2022-08-25T08:45:53.761Z,2.17
2022-08-25T08:48:50.206Z,2.05
2022-08-25T08:51:32.644Z,2.00
2022-08-25T08:54:25.318Z,3.05
2022-08-25T08:57:10.185Z,2.08
2022-08-25T09:00:02.337Z,2.15
2022-08-25T09:02:50.572Z,2.13
2022-08-25T09:05:23.079Z,2.40
2022-08-25T09:08:10.396Z,2.15
2022-08-25T09:11:03.817Z,2.30
2022-08-25T09:14:02.551Z,2.30
2022-08-25T09:16:55.957Z,2.63
2022-08-25T09:22:35.927Z,2.33
2022-08-25T09:25:39.787Z,2.08
2022-08-25T09:28:30.604Z,1.90
2022-08-25T09:31:00.751Z,1.88
2022-08-25T09:33:31.514Z,2.10
2022-08-25T09:36:04.564Z,2.03
2022-08-25T09:38:34.196Z,2.33
2022-08-25T09:41:03.213Z,2.08
2022-08-25T09:43:57.158Z,1.95
2022-08-25T09:46:28.283Z,2.35
2022-08-25T09:49:13.594Z,2.50
2022-08-25T09:51:42.254Z,2.20
2022-08-25T09:54:15.935Z,1.95
2022-08-25T09:56:58.618Z,2.30
2022-08-25T09:59:34.823Z,1.95
2022-08-25T10:02:25.336Z,2.05
2022-08-25T10:04:53.642Z,2.20
2022-08-25T10:07:51.959Z,1.83
2022-08-25T10:10:32.263Z,1.90
2022-08-25T10:13:01.973Z,2.08
2022-08-25T10:15:34.345Z,1.92
2022-08-25T10:18:20.770Z,1.88
2022-08-25T10:21:04.896Z,1.65
2022-08-25T10:23:37.437Z,1.70
2022-08-25T10:26:13.380Z,1.80
2022-08-25T10:29:02.843Z,1.55
2022-08-25T10:31:38.147Z,1.50
2022-08-25T10:34:28.866Z,1.52
2022-08-25T10:37:24.885Z,1.60
2022-08-25T10:40:22.894Z,1.70
2022-08-25T10:43:08.178Z,1.55
2022-08-25T10:45:49.207Z,1.60
2022-08-25T10:48:36.707Z,1.38
2022-08-25T10:51:26.016Z,1.67
2022-08-25T10:53:59.063Z,1.60
2022-08-25T10:56:43.470Z,1.77
2022-08-25T11:02:21.658Z,1.33
2022-08-25T11:05:24.690Z,1.25
2022-08-25T11:08:05.255Z,1.45
2022-08-25T11:10:41.362Z,1.40
2022-08-25T11:13:20.987Z,1.10
2022-08-25T11:16:16.701Z,1.50
2022-08-25T11:18:55.382Z,1.05
2022-08-25T11:21:34.811Z,1.27
2022-08-25T11:24:26.174Z,1.35
2022-08-25T11:26:57.496Z,1.10
2022-08-25T11:29:32.042Z,1.92
2022-08-25T11:32:01.308Z,1.30
2022-08-25T11:34:32.655Z,1.23
2022-08-25T11:37:11.128Z,1.38
2022-08-25T11:39:59.791Z,1.30
2022-08-25T11:42:43.267Z,1.25
2022-08-25T11:45:46.936Z,1.23
2022-08-25T11:48:33.752Z,1.15
2022-08-25T11:51:33.865Z,1.20
2022-08-25T11:54:22.889Z,1.30
2022-08-25T11:57:06.795Z,1.30
2022-08-25T11:59:52.967Z,1.40
2022-08-25T12:02:43.937Z,1.30
2022-08-25T12:05:32.584Z,0.88
2022-08-25T12:08:24.625Z,1.10
2022-08-25T12:10:54.510Z,0.90
2022-08-25T12:13:43.848Z,1.08
2022-08-25T12:16:36.291Z,1.00
2022-08-25T12:19:34.356Z,1.00
2022-08-25T12:22:04.590Z,1.00
2022-08-25T12:24:48.727Z,1.10
2022-08-25T12:27:48.756Z,0.90
2022-08-25T12:30:21.236Z,0.98
2022-08-25T12:33:09.678Z,0.85
2022-08-25T12:36:12.558Z,1.00
2022-08-25T12:38:52.117Z,1.10
2022-08-25T12:41:26.359Z,0.90
2022-08-25T12:44:08.844Z,1.00
2022-08-25T12:46:39.737Z,0.90
2022-08-25T12:49:30.304Z,0.80
2022-08-25T12:52:16.252Z,1.08
2022-08-25T12:55:03.521Z,1.10
2022-08-25T12:57:46.715Z,1.00
2022-08-25T13:00:22.443Z,0.98
2022-08-25T13:03:27.834Z,0.90
2022-08-25T13:06:20.281Z,1.20
2022-08-25T13:09:08.348Z,1.00
2022-08-25T13:11:46.822Z,1.00
2022-08-25T13:14:44.163Z,0.93
2022-08-25T13:17:13.052Z,0.90
2022-08-25T13:19:40.197Z,1.10
2022-08-25T13:22:16.046Z,1.00
2022-08-25T13:24:47.537Z,1.05
2022-08-25T13:29:55.976Z,0.93
2022-08-25T13:32:39.706Z,1.10
2022-08-25T13:35:17.633Z,1.20
2022-08-25T13:37:47.445Z,1.10
2022-08-25T13:40:20.533Z,0.88
2022-08-25T13:43:03.924Z,0.90
2022-08-25T13:45:41.144Z,1.00
2022-08-25T13:48:22.776Z,0.93
2022-08-25T13:50:52.829Z,0.80
2022-08-25T13:53:30.585Z,1.10
2022-08-25T13:56:01.371Z,1.00
2022-08-25T13:58:44.530Z,0.93
2022-08-25T14:01:49.064Z,0.98
2022-08-25T14:04:25.250Z,1.15
2022-08-25T14:07:21.302Z,1.02
2022-08-25T14:09:50.481Z,0.93
2022-08-25T14:12:36.087Z,0.98
2022-08-25T14:15:18.559Z,0.93
2022-08-25T14:17:49.202Z,1.10
2022-08-25T14:20:20.603Z,1.10
2022-08-25T14:22:52.300Z,1.10
2022-08-25T14:25:25.199Z,0.80
2022-08-25T14:28:07.710Z,1.15
2022-08-25T14:30:39.605Z,1.02
2022-08-25T14:33:12.584Z,1.35
2022-08-25T14:35:41.015Z,1.05
2022-08-25T14:38:11.403Z,1.05
2022-08-25T14:40:39.966Z,0.80
2022-08-25T14:43:09.798Z,0.80
2022-08-25T14:45:40.331Z,1.08
2022-08-25T14:48:37.343Z,2.78
2022-08-25T14:51:05.263Z,0.90
2022-08-25T14:53:33.645Z,1.10
2022-08-25T14:56:08.503Z,0.90
2022-08-25T14:58:48.513Z,0.90
2022-08-25T15:01:29.310Z,1.17
2022-08-25T15:04:19.783Z,0.80
2022-08-25T15:06:49.933Z,0.88
2022-08-25T15:09:17.330Z,0.77
2022-08-25T15:11:52.672Z,0.90
2022-08-25T15:14:29.137Z,1.00
2022-08-25T15:17:02.124Z,1.10
2022-08-25T15:19:30.028Z,0.82
2022-08-25T15:21:58.091Z,0.83
2022-08-25T15:24:27.748Z,1.42
2022-08-25T15:27:04.151Z,0.77
2022-08-25T15:29:35.074Z,0.95
2022-08-25T15:32:04.486Z,0.90
2022-08-25T15:34:32.283Z,1.00
2022-08-25T15:37:02.179Z,0.80
2022-08-25T15:39:29.947Z,0.90
2022-08-25T15:42:00.452Z,0.80
2022-08-25T15:44:29.616Z,1.05
2022-08-25T15:46:59.780Z,0.90
2022-08-25T15:49:29.573Z,1.00
2022-08-25T15:52:01.812Z,0.90
2022-08-25T15:54:30.436Z,0.93
2022-08-25T15:56:58.042Z,0.60
2022-08-25T15:59:27.898Z,0.85
2022-08-25T16:01:55.544Z,0.80
2022-08-25T16:04:28.058Z,0.70
2022-08-25T16:06:55.819Z,1.17
2022-08-25T16:09:23.535Z,0.85
2022-08-25T16:11:55.859Z,0.88
2022-08-25T16:14:25.675Z,0.93
2022-08-25T16:16:52.835Z,0.90
2022-08-25T16:19:19.959Z,1.00
2022-08-25T16:21:51.286Z,0.70
2022-08-25T16:24:18.484Z,0.80
2022-08-25T16:26:48.400Z,0.95
2022-08-25T16:29:17.397Z,0.70
2022-08-25T16:31:45.611Z,0.70
2022-08-25T16:34:20.791Z,0.80
2022-08-25T16:36:47.965Z,0.80
2022-08-25T16:41:47.996Z,0.70
2022-08-25T16:44:16.201Z,1.05
2022-08-25T16:46:44.306Z,0.60
2022-08-25T16:49:15.959Z,0.68
2022-08-25T16:51:43.639Z,0.82
2022-08-25T16:54:34.904Z,0.82
2022-08-25T16:59:29.353Z,0.80
2022-08-25T17:02:00.987Z,0.80
2022-08-25T17:04:32.462Z,0.55
2022-08-25T17:07:00.300Z,0.98
2022-08-25T17:09:34.153Z,0.80
2022-08-25T17:12:08.042Z,0.68
2022-08-25T17:14:39.148Z,0.80
2022-08-25T17:17:11.714Z,0.80
2022-08-25T17:19:42.179Z,0.93
2022-08-25T17:22:16.604Z,0.93
2022-08-25T17:24:46.309Z,0.68
2022-08-25T17:27:30.074Z,0.80
2022-08-25T17:30:05.119Z,0.73
2022-08-25T17:32:35.526Z,0.75
2022-08-25T17:35:04.561Z,0.75
2022-08-25T17:37:37.173Z,0.80
2022-08-25T17:40:06.671Z,0.70
2022-08-25T17:42:37.653Z,0.70
2022-08-25T17:47:33.191Z,0.70
2022-08-25T17:50:00.874Z,0.55
2022-08-25T17:52:33.942Z,0.82
2022-08-25T17:55:04.682Z,0.60
2022-08-25T17:57:38.634Z,0.60
2022-08-25T18:00:12.888Z,0.60
2022-08-25T18:02:45.413Z,0.80
2022-08-25T18:05:19.415Z,0.80
2022-08-25T18:07:50.520Z,0.68
2022-08-25T18:10:22.203Z,0.70
2022-08-25T18:12:49.784Z,0.70
2022-08-25T18:15:17.923Z,0.80
2022-08-25T18:17:45.232Z,0.88
2022-08-25T18:20:14.070Z,1.20
2022-08-25T18:22:44.941Z,1.08
2022-08-25T18:25:17.256Z,0.90
2022-08-25T18:27:52.539Z,1.05
2022-08-25T18:30:20.080Z,0.73
2022-08-25T18:32:50.647Z,1.13
2022-08-25T18:35:21.336Z,0.57
2022-08-25T18:38:08.146Z,0.73
2022-08-25T18:40:36.240Z,0.77
2022-08-25T18:43:07.548Z,0.98
2022-08-25T18:45:41.696Z,0.68
2022-08-25T18:48:09.702Z,0.77
2022-08-25T18:50:39.353Z,1.05
2022-08-25T18:53:07.062Z,0.93
2022-08-25T18:55:35.203Z,0.90
2022-08-25T18:58:02.932Z,0.98
2022-08-25T19:00:34.991Z,0.88
2022-08-25T19:03:05.912Z,1.02
2022-08-25T19:05:36.283Z,0.73
2022-08-25T19:08:06.615Z,0.60
2022-08-25T19:10:34.771Z,0.70
2022-08-25T19:13:08.021Z,1.35
2022-08-25T19:15:38.697Z,0.85
2022-08-25T19:18:10.797Z,0.80
2022-08-25T19:20:46.850Z,1.75
2022-08-25T19:23:14.440Z,0.77
2022-08-25T19:25:46.775Z,0.80
2022-08-25T19:28:19.312Z,0.95
2022-08-25T19:30:51.833Z,1.00
2022-08-25T19:33:42.021Z,0.70
2022-08-25T19:36:12.602Z,1.17
2022-08-25T19:38:41.299Z,0.70
2022-08-25T19:41:14.089Z,0.90
2022-08-25T19:43:56.559Z,0.82
2022-08-25T19:46:32.768Z,0.85
2022-08-25T19:49:22.338Z,1.25
2022-08-25T19:51:52.298Z,1.23
2022-08-25T19:54:25.950Z,1.00
2022-08-25T19:56:54.943Z,1.20
2022-08-25T19:59:34.301Z,0.95
2022-08-25T20:02:09.629Z,1.02
2022-08-25T20:04:38.281Z,0.85
2022-08-25T20:07:12.419Z,1.10
2022-08-25T20:09:40.950Z,1.05
2022-08-25T20:12:10.616Z,0.95
2022-08-25T20:14:38.099Z,0.98
2022-08-25T20:17:24.026Z,1.00
2022-08-25T20:19:55.486Z,1.05
2022-08-25T20:22:26.361Z,0.90
2022-08-25T20:24:57.898Z,0.70
2022-08-25T20:27:48.309Z,0.70
2022-08-25T20:30:25.972Z,1.02
2022-08-25T20:32:55.024Z,0.90
2022-08-25T20:35:26.846Z,0.90
2022-08-25T20:37:55.828Z,0.68
2022-08-25T20:40:25.362Z,0.60
2022-08-25T20:42:53.336Z,0.90
2022-08-25T20:45:22.743Z,0.80
2022-08-25T20:47:50.974Z,0.80
2022-08-25T20:50:18.655Z,0.85
2022-08-25T20:52:46.139Z,0.85
2022-08-25T20:55:18.847Z,0.80
2022-08-25T20:57:46.932Z,0.80
2022-08-25T21:00:15.452Z,0.80
2022-08-25T21:02:42.916Z,0.80
2022-08-25T21:05:10.275Z,0.80
2022-08-25T21:07:37.440Z,0.70
2022-08-25T21:10:10.447Z,0.80
2022-08-25T21:12:41.663Z,0.80
2022-08-25T21:15:10.692Z,0.80
2022-08-25T21:17:38.773Z,0.90
2022-08-25T21:20:08.370Z,0.75
2022-08-25T21:22:36.577Z,0.63
2022-08-25T21:25:05.467Z,0.93
2022-08-25T21:27:34.008Z,1.10
2022-08-25T21:30:01.486Z,0.73
2022-08-25T21:32:28.619Z,0.70
2022-08-25T21:34:56.587Z,0.65
2022-08-25T21:37:27.569Z,0.52
2022-08-25T21:42:25.377Z,0.80
2022-08-25T21:44:53.765Z,0.70
2022-08-25T21:47:21.700Z,0.75
2022-08-25T21:49:50.844Z,0.70
2022-08-25T21:52:18.921Z,0.50
2022-08-25T21:54:46.273Z,0.80
2022-08-25T21:57:14.018Z,0.85
2022-08-25T21:59:43.428Z,0.82
2022-08-25T22:02:13.280Z,0.80
2022-08-25T22:04:42.899Z,0.70
2022-08-25T22:07:11.802Z,0.70
2022-08-25T22:09:40.234Z,0.70
2022-08-25T22:12:08.076Z,0.50
2022-08-25T22:14:37.912Z,0.80
2022-08-25T22:17:08.163Z,1.00
2022-08-25T22:19:37.162Z,1.17
2022-08-25T22:22:04.473Z,2.03
2022-08-25T22:24:31.659Z,0.90
2022-08-25T22:26:58.877Z,0.70
2022-08-25T22:29:27.907Z,0.60
2022-08-25T22:32:02.139Z,0.50
2022-08-25T22:34:32.818Z,0.80
2022-08-25T22:37:04.970Z,0.80
2022-08-25T22:39:34.285Z,0.80
2022-08-25T22:42:03.013Z,0.88
2022-08-25T22:44:30.691Z,0.68
2022-08-25T22:46:57.898Z,0.50
2022-08-25T22:49:29.298Z,0.85
2022-08-25T22:51:57.355Z,0.70
2022-08-25T22:54:25.400Z,0.60
2022-08-25T22:56:53.409Z,0.80
2022-08-25T22:59:22.180Z,0.85
2022-08-25T23:01:54.728Z,0.80
2022-08-25T23:04:26.172Z,0.73
2022-08-25T23:09:24.805Z,0.80
2022-08-25T23:11:56.344Z,0.88
2022-08-25T23:14:33.703Z,0.85
2022-08-25T23:17:07.206Z,0.70
2022-08-25T23:19:38.025Z,0.60
2022-08-25T23:22:16.261Z,0.70
2022-08-25T23:24:47.662Z,0.90
2022-08-25T23:27:21.256Z,0.90
2022-08-25T23:29:50.222Z,0.77
2022-08-25T23:32:28.127Z,0.88
2022-08-25T23:34:59.576Z,0.77
2022-08-25T23:37:32.988Z,0.80
2022-08-25T23:40:05.435Z,0.80
2022-08-25T23:42:36.162Z,0.70
2022-08-25T23:45:05.086Z,0.98
2022-08-25T23:47:32.432Z,0.90
2022-08-25T23:50:03.945Z,0.80
2022-08-25T23:52:36.074Z,0.60
2022-08-25T23:55:05.507Z,0.80
2022-08-25T23:57:33.825Z,0.77
